createdAt,value
2023-03-13T17:02:04.746Z,5.00
2023-03-13T17:03:37.116Z,3.60
2023-03-13T17:05:16.383Z,5.40
2023-03-13T17:06:53.530Z,5.00
2023-03-13T17:08:25.479Z,4.20
2023-03-13T17:09:57.433Z,5.80
2023-03-13T17:11:29.859Z,6.00
2023-03-13T17:13:01.800Z,6.20
2023-03-13T17:14:33.676Z,6.60
2023-03-13T17:16:20.741Z,5.40
2023-03-13T17:17:56.169Z,5.20
2023-03-13T17:19:28.863Z,5.20
2023-03-13T17:21:01.034Z,6.20
2023-03-13T17:22:33.051Z,5.40
2023-03-13T17:24:07.280Z,4.80
2023-03-13T17:26:04.052Z,5.40
2023-03-13T17:27:36.173Z,4.80
2023-03-13T17:29:17.231Z,6.60
2023-03-13T17:30:54.498Z,7.00
2023-03-13T17:32:26.619Z,4.00
2023-03-13T17:33:58.628Z,7.60
2023-03-13T17:35:30.705Z,4.40
2023-03-13T17:37:04.986Z,6.20
2023-03-13T17:38:36.888Z,5.20
2023-03-13T17:40:34.655Z,5.00
2023-03-13T17:42:08.153Z,6.00
2023-03-13T17:43:42.405Z,7.00
2023-03-13T17:45:14.617Z,5.60
2023-03-13T17:46:47.546Z,7.00
2023-03-13T17:48:29.299Z,4.60
2023-03-13T17:50:18.400Z,5.20
2023-03-13T17:51:59.354Z,5.80
2023-03-13T17:53:31.495Z,6.00
2023-03-13T17:55:03.451Z,4.00
2023-03-13T17:57:03.562Z,4.80
2023-03-13T17:58:35.431Z,6.80
2023-03-13T18:00:25.514Z,5.00
2023-03-13T18:01:59.144Z,7.00
2023-03-13T18:03:31.275Z,4.60
2023-03-13T18:05:03.227Z,4.60
2023-03-13T18:06:50.310Z,7.40
2023-03-13T18:08:24.093Z,6.80
2023-03-13T18:10:00.151Z,6.00
2023-03-13T18:11:32.159Z,0.00
2023-03-13T18:13:04.241Z,8.00
2023-03-13T18:14:37.640Z,7.80
2023-03-13T18:16:59.126Z,5.60
2023-03-13T18:18:31.178Z,8.00
2023-03-13T18:22:35.446Z,9.40
2023-03-13T18:24:11.190Z,8.40
2023-03-13T18:25:46.740Z,7.00
2023-03-13T18:27:44.393Z,8.00
2023-03-13T18:29:26.883Z,9.00
2023-03-13T18:31:01.977Z,13.60
2023-03-13T18:32:34.064Z,15.80
2023-03-13T18:34:05.985Z,20.80
2023-03-13T18:35:42.611Z,24.60
2023-03-13T18:37:40.723Z,34.80
2023-03-13T18:39:22.264Z,39.00
2023-03-13T18:40:55.740Z,49.00
2023-03-13T18:42:27.924Z,51.75
2023-03-13T18:44:01.739Z,52.00
2023-03-13T18:45:34.081Z,61.00
2023-03-13T18:47:40.760Z,62.00
2023-03-13T18:49:20.385Z,77.75
2023-03-13T18:50:52.288Z,83.75
2023-03-13T18:52:29.894Z,97.60
2023-03-13T18:54:01.851Z,95.00
2023-03-13T18:55:33.661Z,109.00
2023-03-13T18:57:22.806Z,116.25
2023-03-13T18:58:57.508Z,127.00
2023-03-13T19:00:55.251Z,121.25
2023-03-13T19:02:52.096Z,131.50
2023-03-13T19:04:26.412Z,140.75
2023-03-13T19:06:03.450Z,145.25
2023-03-13T19:07:35.333Z,156.25
2023-03-13T19:09:41.551Z,155.25
2023-03-13T19:11:18.688Z,157.50
2023-03-13T19:12:56.816Z,171.75
2023-03-13T19:14:32.243Z,175.50
2023-03-13T19:16:44.523Z,163.00
2023-03-13T19:18:17.116Z,172.00
2023-03-13T19:19:50.321Z,143.25
2023-03-13T19:21:26.631Z,171.75
2023-03-13T19:23:00.789Z,179.67
2023-03-13T19:24:32.955Z,171.75
2023-03-13T19:26:05.095Z,173.00
2023-03-13T19:27:37.351Z,191.00
2023-03-13T19:29:21.490Z,168.00
2023-03-13T19:30:58.569Z,175.75
2023-03-13T19:32:30.624Z,169.25
2023-03-13T19:34:02.468Z,170.25
2023-03-13T19:35:34.497Z,170.75
2023-03-13T19:37:06.715Z,165.50
2023-03-13T19:38:42.464Z,147.25
2023-03-13T19:40:20.850Z,149.50
2023-03-13T19:41:53.237Z,157.25
2023-03-13T19:43:27.091Z,156.50
2023-03-13T19:47:25.526Z,150.50
2023-03-13T19:48:58.701Z,148.00
2023-03-13T19:50:31.688Z,140.50
2023-03-13T19:52:03.765Z,140.25
2023-03-13T19:53:35.693Z,136.50
2023-03-13T19:55:14.673Z,132.75
2023-03-13T19:56:48.002Z,132.75
2023-03-13T19:58:49.913Z,139.50
2023-03-13T20:00:35.110Z,145.25
2023-03-13T20:02:11.490Z,137.00
2023-03-13T20:03:47.043Z,137.25
2023-03-13T20:07:20.604Z,148.75
2023-03-13T20:08:59.576Z,150.75
2023-03-13T20:10:31.578Z,150.00
2023-03-13T20:12:03.614Z,148.00
2023-03-13T20:13:35.815Z,156.00
2023-03-13T20:15:11.055Z,152.75
2023-03-13T20:16:44.023Z,161.50
2023-03-13T20:18:19.330Z,169.00
2023-03-13T20:19:54.465Z,165.00
2023-03-13T20:21:44.480Z,173.25
2023-03-13T20:23:21.535Z,172.00
2023-03-13T20:24:58.959Z,173.00
2023-03-13T20:26:31.033Z,176.33
2023-03-13T20:28:02.856Z,171.50
2023-03-13T20:29:36.581Z,177.75
2023-03-13T20:32:00.614Z,180.00
2023-03-13T20:33:33.119Z,169.75
2023-03-13T20:35:30.307Z,185.33
2023-03-13T20:37:04.070Z,186.33
2023-03-13T20:38:36.159Z,191.67
2023-03-13T20:40:37.977Z,184.33
2023-03-13T20:42:20.333Z,198.67
2023-03-13T20:46:16.991Z,205.67
2023-03-13T20:47:55.417Z,194.33
2023-03-13T20:49:27.583Z,201.00
2023-03-13T20:51:00.936Z,197.00
2023-03-13T20:52:33.990Z,207.00
2023-03-13T20:54:06.001Z,201.00
2023-03-13T20:55:38.797Z,193.67
2023-03-13T20:57:14.085Z,184.00
2023-03-13T20:58:48.380Z,199.33
2023-03-13T21:00:27.798Z,191.33
2023-03-13T21:02:24.742Z,178.33
2023-03-13T21:03:56.790Z,191.33
2023-03-13T21:05:28.959Z,193.00
2023-03-13T21:07:04.759Z,183.00
2023-03-13T21:08:38.580Z,189.33
2023-03-13T21:10:13.127Z,185.33
2023-03-13T21:11:48.416Z,191.67
2023-03-13T21:13:20.861Z,178.33
2023-03-13T21:14:58.066Z,181.33
2023-03-13T21:16:33.937Z,202.00
2023-03-13T21:18:17.187Z,195.67
2023-03-13T21:19:53.914Z,186.00
2023-03-13T21:21:29.385Z,175.00
2023-03-13T21:23:01.465Z,191.33
2023-03-13T21:24:34.755Z,189.00
2023-03-13T21:26:06.877Z,192.33
2023-03-13T21:28:03.939Z,183.00
2023-03-13T21:29:35.822Z,185.00
2023-03-13T21:31:38.922Z,185.67
2023-03-13T21:33:15.531Z,185.00
2023-03-13T21:34:47.738Z,163.50
2023-03-13T21:36:21.858Z,188.67
2023-03-13T21:37:55.914Z,165.00
2023-03-13T21:39:27.898Z,169.25
2023-03-13T21:40:59.825Z,163.50
2023-03-13T21:42:31.932Z,175.00
2023-03-13T21:44:03.988Z,197.00
2023-03-13T21:45:39.671Z,197.33
2023-03-13T21:47:12.918Z,182.00
2023-03-13T21:48:48.704Z,156.00
2023-03-13T21:50:25.502Z,156.75
2023-03-13T21:52:26.172Z,143.75
2023-03-13T21:54:00.475Z,137.50
2023-03-13T21:55:35.532Z,131.50
2023-03-13T21:57:14.088Z,137.50
2023-03-13T21:58:49.975Z,136.75
2023-03-13T22:00:22.304Z,128.75
2023-03-13T22:01:54.377Z,143.00
2023-03-13T22:03:26.979Z,131.25
2023-03-13T22:04:59.050Z,126.50
2023-03-13T22:06:40.758Z,123.50
2023-03-13T22:08:13.673Z,132.50
2023-03-13T22:10:16.278Z,131.75
2023-03-13T22:11:49.104Z,140.25
2023-03-13T22:13:24.395Z,129.50
2023-03-13T22:15:24.860Z,131.50
2023-03-13T22:17:22.405Z,140.00
2023-03-13T22:18:54.380Z,132.25
2023-03-13T22:20:28.728Z,129.75
2023-03-13T22:22:03.161Z,136.00
2023-03-13T22:23:35.195Z,129.50
2023-03-13T22:25:09.277Z,134.50
2023-03-13T22:26:41.266Z,124.00
2023-03-13T22:28:37.580Z,126.00
2023-03-13T22:30:13.366Z,128.50
2023-03-13T22:31:45.540Z,123.25
2023-03-13T22:33:23.732Z,106.75
2023-03-13T22:34:55.775Z,116.50
2023-03-13T22:36:27.740Z,118.00
2023-03-13T22:37:59.761Z,123.75
2023-03-13T22:39:31.820Z,111.00
2023-03-13T22:41:04.335Z,121.25
2023-03-13T22:42:36.255Z,107.00
2023-03-13T22:44:10.164Z,110.50
2023-03-13T22:45:47.739Z,116.00
2023-03-13T22:47:27.954Z,107.75
2023-03-13T22:49:01.159Z,106.25
2023-03-13T22:50:34.466Z,101.25
2023-03-13T22:52:06.496Z,115.00
2023-03-13T22:53:39.892Z,102.00
2023-03-13T22:55:13.688Z,102.25
2023-03-13T22:56:50.803Z,102.40
2023-03-13T22:58:47.664Z,100.75
2023-03-13T23:00:22.979Z,113.75
2023-03-13T23:02:45.352Z,116.25
2023-03-13T23:04:44.554Z,103.40
2023-03-13T23:06:25.606Z,91.00
2023-03-13T23:08:04.161Z,92.40
2023-03-13T23:09:36.158Z,80.50
2023-03-13T23:11:10.715Z,82.25
2023-03-13T23:12:48.068Z,84.50
2023-03-13T23:14:20.423Z,80.00
2023-03-13T23:15:56.173Z,87.50
2023-03-13T23:17:31.499Z,85.25
2023-03-13T23:19:03.576Z,85.80
2023-03-13T23:20:36.379Z,86.80
2023-03-13T23:22:20.474Z,82.00
2023-03-13T23:23:55.226Z,88.80
2023-03-13T23:25:31.415Z,86.00
2023-03-13T23:27:06.227Z,92.00
2023-03-13T23:29:02.935Z,94.00
2023-03-13T23:30:35.107Z,90.20
2023-03-13T23:32:07.215Z,92.60
2023-03-13T23:34:03.826Z,96.40
